Milborne Port, United Kingdom
Current Conditions -  °F | °C
As of 3:50 AM on Wednesday 26 Nov 2014 (Local Time) from EGDY Reporting Station
Haze Haze  
Wind Chill: 42°   Ceiling: 600
Heat Index: 45°   Visibility: 1.8mi
Dew Point: 43°   Wind: 5mph
Humidity: 93%   Direction: 330°NNW
Pressure: 29.91"   Gusts: NA
Location:  50.97°N, 2.46°W
Report Text: EGDY 260350Z 33004KT 3000 BR OVC006 07/06 Q1013 YLO1
Loading
Personal Weather Stations






























Interactive Weather Map New forecast layout! Learn more

10-Day Weather Forecast

Advertisements
Track Severe Weather on mobile